createdAt,value
2023-05-21T00:01:30.448Z,84.45
2023-05-21T00:04:01.673Z,84.81
2023-05-21T00:06:31.794Z,84.53
2023-05-21T00:09:00.190Z,84.88
2023-05-21T00:11:28.706Z,84.33
2023-05-21T00:13:56.982Z,84.97
2023-05-21T00:16:25.673Z,85.26
2023-05-21T00:18:58.166Z,84.29
2023-05-21T00:21:28.388Z,84.16
2023-05-21T00:23:57.454Z,84.04
2023-05-21T00:26:27.690Z,84.12
2023-05-21T00:28:56.057Z,84.59
2023-05-21T00:31:24.465Z,84.45
2023-05-21T00:33:52.792Z,84.51
2023-05-21T00:36:23.795Z,84.21
2023-05-21T00:38:54.028Z,85.06
2023-05-21T00:41:24.691Z,85.12
2023-05-21T00:43:54.097Z,85.31
2023-05-21T00:46:23.600Z,85.59
2023-05-21T00:48:52.127Z,85.62
2023-05-21T00:51:21.764Z,85.72
2023-05-21T00:54:05.971Z,86.13
2023-05-21T01:00:22.178Z,86.60
2023-05-21T01:02:50.634Z,86.94
2023-05-21T01:05:19.968Z,86.42
2023-05-21T01:07:48.336Z,86.55
2023-05-21T01:10:18.037Z,86.98
2023-05-21T01:12:46.811Z,87.43
2023-05-21T01:15:15.501Z,87.40
2023-05-21T01:17:46.178Z,87.20
2023-05-21T01:20:18.067Z,87.37
2023-05-21T01:22:52.910Z,87.76
2023-05-21T01:25:28.515Z,87.48
2023-05-21T01:28:01.621Z,87.06
2023-05-21T01:30:30.093Z,87.24
2023-05-21T01:33:16.752Z,87.13
2023-05-21T01:35:47.430Z,87.57
2023-05-21T01:38:20.983Z,87.65
2023-05-21T01:40:54.225Z,87.89
2023-05-21T01:43:23.786Z,87.55
2023-05-21T01:45:55.085Z,87.34
2023-05-21T01:48:24.915Z,87.64
2023-05-21T01:50:55.209Z,87.27
2023-05-21T01:53:25.321Z,87.46
2023-05-21T01:55:54.588Z,87.43
2023-05-21T01:58:24.254Z,86.74
2023-05-21T02:00:52.824Z,87.45
2023-05-21T02:03:21.739Z,87.30
2023-05-21T02:05:51.986Z,86.95
2023-05-21T02:08:21.239Z,86.83
2023-05-21T02:10:54.104Z,86.75
2023-05-21T02:13:25.809Z,87.00
2023-05-21T02:15:55.250Z,87.11
2023-05-21T02:18:23.722Z,88.02
2023-05-21T02:20:52.024Z,87.62
2023-05-21T02:23:20.416Z,88.08
2023-05-21T02:25:48.721Z,88.44
2023-05-21T02:28:18.425Z,88.79
2023-05-21T02:30:46.891Z,88.76
2023-05-21T02:33:15.700Z,88.67
2023-05-21T02:35:44.648Z,88.33
2023-05-21T02:38:13.619Z,88.51
2023-05-21T02:40:42.120Z,88.94
2023-05-21T02:43:10.504Z,89.13
2023-05-21T02:45:40.206Z,89.26
2023-05-21T02:48:08.682Z,89.65
2023-05-21T02:50:37.353Z,90.09
2023-05-21T02:53:06.199Z,90.23
2023-05-21T02:55:34.745Z,90.36
2023-05-21T02:58:03.377Z,90.34
2023-05-21T03:00:31.869Z,90.67
2023-05-21T03:03:01.776Z,89.81
2023-05-21T03:05:30.681Z,89.95
2023-05-21T03:08:01.538Z,90.20
2023-05-21T03:10:30.323Z,90.04
2023-05-21T03:12:58.740Z,89.73
2023-05-21T03:15:27.150Z,89.71
2023-05-21T03:17:55.562Z,89.86
2023-05-21T03:20:28.831Z,90.37
2023-05-21T03:23:20.129Z,90.59
2023-05-21T03:25:49.208Z,90.90
2023-05-21T03:28:17.654Z,91.12
2023-05-21T03:30:52.193Z,91.05
2023-05-21T03:33:20.613Z,91.44
2023-05-21T03:35:50.713Z,91.95
2023-05-21T03:38:19.315Z,92.03
2023-05-21T03:40:47.658Z,92.25
2023-05-21T03:43:16.045Z,92.60
2023-05-21T03:45:44.789Z,92.54
2023-05-21T03:48:13.243Z,92.57
2023-05-21T03:50:41.559Z,91.78
2023-05-21T03:53:12.455Z,91.83
2023-05-21T03:55:40.940Z,91.92
2023-05-21T03:58:09.679Z,91.34
2023-05-21T04:00:58.029Z,90.90
2023-05-21T04:03:27.076Z,90.96
2023-05-21T04:05:56.340Z,91.49
2023-05-21T04:08:26.293Z,91.03
2023-05-21T04:10:54.731Z,90.62
2023-05-21T04:13:23.058Z,90.72
2023-05-21T04:15:51.783Z,89.95
2023-05-21T04:18:20.520Z,89.99
2023-05-21T04:20:49.880Z,90.09
2023-05-21T04:23:18.207Z,89.63
2023-05-21T04:25:50.588Z,89.80
2023-05-21T04:28:20.256Z,89.17
2023-05-21T04:30:49.865Z,89.00
2023-05-21T04:33:20.415Z,88.01
2023-05-21T04:35:50.230Z,88.58
2023-05-21T04:38:19.932Z,88.46
2023-05-21T04:40:50.751Z,88.40
2023-05-21T04:43:44.048Z,88.27
2023-05-21T04:46:12.523Z,88.40
2023-05-21T04:48:41.080Z,88.27
2023-05-21T04:51:09.337Z,87.87
2023-05-21T04:53:38.834Z,88.20
2023-05-21T04:56:09.796Z,87.93
2023-05-21T04:58:40.522Z,88.02
2023-05-21T05:01:09.203Z,87.85
2023-05-21T05:03:37.624Z,87.23
2023-05-21T05:06:07.674Z,87.07
2023-05-21T05:08:36.164Z,87.20
2023-05-21T05:11:04.553Z,86.44
2023-05-21T05:13:34.775Z,86.39
2023-05-21T05:16:03.166Z,85.87
2023-05-21T05:18:31.477Z,85.56
2023-05-21T05:20:59.729Z,85.20
2023-05-21T05:23:28.099Z,84.91
2023-05-21T05:25:56.773Z,84.52
2023-05-21T05:28:25.063Z,83.55
2023-05-21T05:30:54.785Z,83.04
2023-05-21T05:33:23.243Z,83.26
2023-05-21T05:35:51.548Z,83.46
2023-05-21T05:38:19.981Z,83.72
2023-05-21T05:40:48.784Z,83.29
2023-05-21T05:43:17.503Z,82.31
2023-05-21T05:45:45.736Z,82.66
2023-05-21T05:48:16.806Z,82.59
2023-05-21T05:50:45.270Z,81.93
2023-05-21T05:53:14.747Z,81.13
2023-05-21T05:55:43.056Z,80.98
2023-05-21T05:58:11.349Z,80.75
2023-05-21T06:00:39.769Z,80.49
2023-05-21T06:03:08.418Z,80.44
2023-05-21T06:05:44.036Z,80.34
2023-05-21T06:08:12.755Z,79.89
2023-05-21T06:10:41.144Z,79.75
2023-05-21T06:13:09.390Z,79.71
2023-05-21T06:15:39.359Z,79.79
2023-05-21T06:18:07.781Z,79.07
2023-05-21T06:20:36.333Z,79.79
2023-05-21T06:23:07.511Z,79.46
2023-05-21T06:25:36.300Z,79.87
2023-05-21T06:28:04.967Z,79.94
2023-05-21T06:30:33.453Z,80.87
2023-05-21T06:33:01.943Z,81.28
2023-05-21T06:35:50.273Z,80.24
2023-05-21T06:38:20.068Z,80.21
2023-05-21T06:40:49.538Z,81.17
2023-05-21T06:43:17.873Z,80.55
2023-05-21T06:45:46.623Z,79.55
2023-05-21T06:48:17.014Z,78.54
2023-05-21T06:50:45.718Z,78.82
2023-05-21T06:53:16.407Z,78.66
2023-05-21T06:55:46.442Z,78.25
2023-05-21T06:58:14.798Z,78.68
2023-05-21T07:00:43.092Z,78.64
2023-05-21T07:03:11.525Z,77.91
2023-05-21T07:05:40.186Z,77.74
2023-05-21T07:08:09.099Z,75.90
2023-05-21T07:10:38.476Z,75.75
2023-05-21T07:13:08.182Z,74.52
2023-05-21T07:15:36.813Z,74.87
2023-05-21T07:18:05.247Z,72.64
2023-05-21T07:20:33.715Z,72.04
2023-05-21T07:23:02.049Z,71.26
2023-05-21T07:25:30.303Z,70.90
2023-05-21T07:27:58.605Z,71.50
2023-05-21T07:30:28.316Z,70.08
2023-05-21T07:32:56.752Z,69.40
2023-05-21T07:35:25.103Z,69.11
2023-05-21T07:37:53.616Z,69.97
2023-05-21T07:40:21.906Z,69.67
2023-05-21T07:42:50.570Z,69.59
2023-05-21T07:45:18.908Z,69.89
2023-05-21T07:47:48.704Z,70.22
2023-05-21T07:50:17.071Z,69.81
2023-05-21T07:52:45.419Z,68.22
2023-05-21T07:55:13.909Z,67.57
2023-05-21T07:57:42.235Z,67.46
2023-05-21T08:00:14.081Z,66.15
2023-05-21T08:02:42.927Z,69.21
2023-05-21T08:05:13.023Z,69.11
2023-05-21T08:07:41.458Z,68.55
2023-05-21T08:10:10.192Z,68.92
2023-05-21T08:12:38.560Z,67.66
2023-05-21T08:15:07.643Z,66.24
2023-05-21T08:17:36.201Z,65.45
2023-05-21T08:20:05.851Z,64.86
2023-05-21T08:22:35.600Z,65.42
2023-05-21T08:25:04.053Z,64.80
2023-05-21T08:27:32.600Z,64.16
2023-05-21T08:30:00.880Z,63.12
2023-05-21T08:32:29.243Z,63.79
2023-05-21T08:34:58.542Z,60.20
2023-05-21T08:37:26.802Z,58.57
2023-05-21T08:39:57.046Z,57.86
2023-05-21T08:45:06.083Z,55.64
2023-05-21T08:47:36.420Z,55.36
2023-05-21T08:50:05.666Z,56.02
2023-05-21T08:52:34.406Z,54.73
2023-05-21T08:55:04.889Z,53.86
2023-05-21T08:57:33.869Z,52.02
2023-05-21T09:00:02.766Z,48.51
2023-05-21T09:02:34.383Z,48.52
2023-05-21T09:05:04.176Z,50.68
2023-05-21T09:07:35.904Z,51.94
2023-05-21T09:10:08.293Z,52.50
2023-05-21T09:12:36.673Z,50.28
2023-05-21T09:15:05.461Z,49.33
2023-05-21T09:17:33.904Z,45.60
2023-05-21T09:20:11.068Z,45.04
2023-05-21T09:22:41.382Z,45.33
2023-05-21T09:25:11.726Z,48.41
2023-05-21T09:27:40.504Z,46.49
2023-05-21T09:30:11.541Z,43.54
2023-05-21T09:32:40.406Z,39.56
2023-05-21T09:35:10.118Z,35.85
2023-05-21T09:37:38.937Z,36.47
2023-05-21T09:40:16.395Z,34.81
2023-05-21T09:42:46.624Z,34.90
2023-05-21T09:45:18.702Z,41.90
2023-05-21T09:47:47.632Z,40.12
2023-05-21T09:50:19.058Z,40.06
2023-05-21T09:52:48.158Z,42.40
2023-05-21T09:55:18.186Z,42.27
2023-05-21T09:57:49.761Z,44.65
2023-05-21T10:00:42.836Z,45.87
2023-05-21T10:03:18.114Z,45.11
2023-05-21T10:05:47.877Z,45.30
2023-05-21T10:08:17.577Z,46.41
2023-05-21T10:10:48.706Z,43.71
2023-05-21T10:13:20.085Z,42.91
2023-05-21T10:15:50.941Z,43.12
2023-05-21T10:18:21.333Z,42.67
2023-05-21T10:20:50.244Z,41.38
2023-05-21T10:23:19.585Z,40.83
2023-05-21T10:25:50.270Z,38.37
2023-05-21T10:28:18.976Z,37.31
2023-05-21T10:30:47.745Z,36.62
2023-05-21T10:33:17.603Z,37.48
2023-05-21T10:35:47.775Z,35.78
2023-05-21T10:38:19.304Z,38.80
2023-05-21T10:40:50.165Z,40.77
2023-05-21T10:43:36.347Z,40.82
2023-05-21T10:46:13.845Z,41.40
2023-05-21T10:48:52.300Z,40.37
2023-05-21T10:51:23.239Z,42.19
2023-05-21T10:54:05.230Z,42.76
2023-05-21T10:56:39.845Z,43.47
2023-05-21T10:59:11.808Z,43.64
2023-05-21T11:01:41.947Z,44.79
2023-05-21T11:04:12.314Z,43.03
2023-05-21T11:06:40.636Z,42.36
2023-05-21T11:09:13.337Z,41.23
2023-05-21T11:11:43.900Z,40.07
2023-05-21T11:14:27.252Z,41.45
2023-05-21T11:16:56.970Z,40.35
2023-05-21T11:19:35.300Z,40.33
2023-05-21T11:22:07.008Z,43.24
2023-05-21T11:24:38.417Z,43.35
2023-05-21T11:27:08.829Z,42.26
2023-05-21T11:29:40.411Z,42.55
2023-05-21T11:32:10.204Z,44.07
2023-05-21T11:34:39.431Z,42.46
2023-05-21T11:37:30.264Z,43.80
2023-05-21T11:39:59.984Z,42.62
2023-05-21T11:42:30.487Z,43.66
2023-05-21T11:44:59.373Z,42.54
2023-05-21T11:47:28.203Z,41.00
2023-05-21T11:49:57.459Z,42.91
2023-05-21T11:52:26.995Z,42.59
2023-05-21T11:54:56.865Z,41.44
2023-05-21T11:57:29.168Z,41.70
2023-05-21T11:59:59.726Z,42.10
2023-05-21T12:02:29.192Z,44.69
2023-05-21T12:05:00.132Z,45.98
2023-05-21T12:07:29.844Z,47.01
2023-05-21T12:09:58.391Z,46.22
2023-05-21T12:12:38.526Z,47.87
2023-05-21T12:15:13.693Z,47.65
2023-05-21T12:17:42.070Z,46.24
2023-05-21T12:20:10.841Z,45.08
2023-05-21T12:22:42.287Z,43.32
2023-05-21T12:25:12.164Z,43.33
2023-05-21T12:27:42.130Z,43.79
2023-05-21T12:30:12.060Z,43.08
2023-05-21T12:32:43.734Z,42.58
2023-05-21T12:35:21.399Z,41.05
2023-05-21T12:37:50.630Z,42.93
2023-05-21T12:40:19.224Z,40.42
2023-05-21T12:42:47.594Z,35.90
2023-05-21T12:45:18.672Z,32.06
2023-05-21T12:47:48.899Z,30.44
2023-05-21T12:50:20.999Z,30.73
2023-05-21T12:52:49.537Z,31.94
2023-05-21T12:55:18.223Z,30.27
2023-05-21T12:57:46.919Z,28.00
2023-05-21T13:00:15.377Z,27.15
2023-05-21T13:02:45.853Z,26.14
2023-05-21T13:05:17.197Z,26.10
2023-05-21T13:07:47.141Z,25.68
2023-05-21T13:10:16.521Z,23.62
2023-05-21T13:12:45.261Z,26.46
2023-05-21T13:15:13.614Z,28.03
2023-05-21T13:17:41.942Z,31.27
2023-05-21T13:20:13.036Z,33.08
2023-05-21T13:22:44.659Z,33.97
2023-05-21T13:25:15.751Z,34.88
2023-05-21T13:27:44.212Z,36.61
2023-05-21T13:30:12.896Z,40.22
2023-05-21T13:32:41.610Z,38.66
2023-05-21T13:35:11.214Z,37.08
2023-05-21T13:37:41.858Z,39.19
2023-05-21T13:40:11.905Z,41.54
2023-05-21T13:42:40.162Z,42.21
2023-05-21T13:45:10.122Z,44.05
2023-05-21T13:47:40.274Z,42.18
2023-05-21T13:50:09.454Z,40.78
2023-05-21T13:52:38.096Z,40.27
2023-05-21T13:55:08.870Z,40.54
2023-05-21T13:57:37.215Z,39.49
2023-05-21T14:00:06.028Z,37.99
2023-05-21T14:02:34.453Z,36.29
2023-05-21T14:05:02.955Z,36.60
2023-05-21T14:07:31.367Z,36.09
2023-05-21T14:09:59.804Z,38.47
2023-05-21T14:12:29.475Z,37.22
2023-05-21T14:14:57.841Z,36.63
2023-05-21T14:17:26.109Z,38.64
2023-05-21T14:19:54.857Z,39.20
2023-05-21T14:22:23.270Z,42.08
2023-05-21T14:24:52.667Z,42.52
2023-05-21T14:27:21.079Z,43.77
2023-05-21T14:29:50.832Z,44.28
2023-05-21T14:32:19.287Z,44.08
2023-05-21T14:34:47.687Z,44.59
2023-05-21T14:37:15.963Z,44.29
2023-05-21T14:39:44.257Z,45.06
2023-05-21T14:42:12.515Z,46.59
2023-05-21T14:44:40.877Z,47.07
2023-05-21T14:47:10.757Z,45.79
2023-05-21T14:49:39.191Z,45.08
2023-05-21T14:52:08.383Z,44.49
2023-05-21T14:54:36.788Z,43.75
2023-05-21T14:57:05.195Z,42.41
2023-05-21T14:59:33.787Z,42.15
2023-05-21T15:02:02.287Z,43.85
2023-05-21T15:04:32.115Z,44.18
2023-05-21T15:07:00.399Z,43.63
2023-05-21T15:09:28.736Z,42.66
2023-05-21T15:12:04.420Z,42.73
2023-05-21T15:14:32.796Z,43.71
2023-05-21T15:17:15.637Z,44.17
2023-05-21T15:19:45.386Z,44.24
2023-05-21T15:22:13.609Z,43.53
2023-05-21T15:24:41.922Z,42.84
2023-05-21T15:27:10.191Z,42.90
2023-05-21T15:29:38.776Z,43.68
2023-05-21T15:32:07.242Z,45.25
2023-05-21T15:34:35.555Z,45.48
2023-05-21T15:37:05.578Z,47.20
2023-05-21T15:39:33.871Z,46.84
2023-05-21T15:42:02.147Z,47.71
2023-05-21T15:44:30.435Z,47.60
2023-05-21T15:46:58.822Z,48.24
2023-05-21T15:49:27.211Z,48.74
2023-05-21T15:51:57.946Z,49.46
2023-05-21T15:54:27.630Z,50.17
2023-05-21T15:56:56.240Z,50.29
2023-05-21T15:59:25.643Z,49.80
2023-05-21T16:01:54.185Z,50.19
2023-05-21T16:04:22.424Z,49.41
2023-05-21T16:06:50.684Z,49.13
2023-05-21T16:09:19.090Z,49.52
2023-05-21T16:11:48.870Z,48.84
2023-05-21T16:14:17.164Z,49.50
2023-05-21T16:16:45.693Z,50.12
2023-05-21T16:19:14.009Z,49.71
2023-05-21T16:21:42.634Z,49.64
2023-05-21T16:24:11.109Z,51.11
2023-05-21T16:26:39.537Z,51.84
2023-05-21T16:29:09.175Z,51.98
2023-05-21T16:31:38.568Z,52.13
2023-05-21T16:34:07.137Z,51.71
2023-05-21T16:36:37.523Z,52.25
2023-05-21T16:39:06.180Z,53.06
2023-05-21T16:41:35.068Z,53.23
2023-05-21T16:44:03.442Z,54.28
2023-05-21T16:46:33.499Z,54.44
2023-05-21T16:49:02.131Z,55.13
2023-05-21T16:51:31.450Z,55.31
2023-05-21T16:53:59.783Z,55.35
2023-05-21T16:56:30.116Z,56.59
2023-05-21T16:58:59.083Z,56.75
2023-05-21T17:01:27.623Z,57.07
2023-05-21T17:03:58.841Z,57.17
2023-05-21T17:06:27.901Z,57.01
2023-05-21T17:08:56.209Z,57.49
2023-05-21T17:11:24.653Z,57.16
2023-05-21T17:13:53.073Z,57.40
2023-05-21T17:16:21.619Z,57.20
2023-05-21T17:18:50.136Z,57.06
2023-05-21T17:21:41.556Z,56.09
2023-05-21T17:24:10.164Z,56.69
2023-05-21T17:26:38.556Z,56.46
2023-05-21T17:29:08.652Z,56.62
2023-05-21T17:31:38.070Z,56.16
2023-05-21T17:34:06.328Z,56.32
2023-05-21T17:36:36.002Z,56.89
2023-05-21T17:39:08.845Z,56.63
2023-05-21T17:41:39.363Z,56.57
2023-05-21T17:44:08.432Z,56.85
2023-05-21T17:46:37.272Z,57.00
2023-05-21T17:49:05.896Z,57.12
2023-05-21T17:51:34.289Z,57.46
2023-05-21T17:54:02.666Z,58.20
2023-05-21T17:56:34.333Z,58.48
2023-05-21T17:59:02.767Z,59.09
2023-05-21T18:01:31.306Z,59.36
2023-05-21T18:03:59.652Z,59.17
2023-05-21T18:06:28.871Z,59.67
2023-05-21T18:08:59.943Z,60.21
2023-05-21T18:11:28.695Z,60.65
2023-05-21T18:13:58.439Z,60.29
2023-05-21T18:16:29.998Z,60.77
2023-05-21T18:18:58.354Z,61.40
2023-05-21T18:21:27.126Z,61.61
2023-05-21T18:23:55.720Z,61.58
2023-05-21T18:26:24.643Z,61.65
2023-05-21T18:28:52.909Z,61.80
2023-05-21T18:31:22.676Z,62.15
2023-05-21T18:33:51.213Z,62.29
2023-05-21T18:36:19.587Z,62.49
2023-05-21T18:38:48.412Z,62.73
2023-05-21T18:41:16.931Z,63.50
2023-05-21T18:43:45.172Z,63.76
2023-05-21T18:46:13.510Z,63.96
2023-05-21T18:48:43.239Z,64.49
2023-05-21T18:51:11.556Z,65.11
2023-05-21T18:53:40.372Z,65.53
2023-05-21T18:56:11.984Z,65.95
2023-05-21T18:58:40.550Z,66.69
2023-05-21T19:01:09.168Z,66.55
2023-05-21T19:03:38.436Z,67.07
2023-05-21T19:06:09.012Z,67.35
2023-05-21T19:08:38.272Z,67.59
2023-05-21T19:11:07.507Z,67.62
2023-05-21T19:13:37.945Z,68.23
2023-05-21T19:16:11.016Z,68.53
2023-05-21T19:18:43.475Z,69.05
2023-05-21T19:21:17.423Z,69.23
2023-05-21T19:23:53.135Z,69.69
2023-05-21T19:26:23.406Z,69.77
2023-05-21T19:28:54.112Z,70.44
2023-05-21T19:31:27.724Z,70.46
2023-05-21T19:33:56.493Z,70.88
2023-05-21T19:36:37.965Z,70.98
2023-05-21T19:39:13.438Z,71.42
2023-05-21T19:41:42.285Z,71.23
2023-05-21T19:44:11.040Z,71.04
2023-05-21T19:46:39.564Z,71.10
2023-05-21T19:49:13.513Z,71.43
2023-05-21T19:51:43.478Z,71.76
2023-05-21T19:54:12.322Z,72.10
2023-05-21T19:56:50.978Z,71.45
2023-05-21T19:59:30.682Z,71.01
2023-05-21T20:02:05.165Z,71.17
2023-05-21T20:04:35.819Z,71.47
2023-05-21T20:07:08.810Z,71.58
2023-05-21T20:09:51.473Z,71.06
2023-05-21T20:12:25.304Z,70.66
2023-05-21T20:14:56.775Z,68.10
2023-05-21T20:17:25.519Z,66.92
2023-05-21T20:20:02.500Z,64.64
2023-05-21T20:22:43.893Z,62.86
2023-05-21T20:25:21.383Z,63.61
2023-05-21T20:27:53.904Z,64.27
2023-05-21T20:30:35.103Z,65.38
2023-05-21T20:33:08.998Z,66.79
2023-05-21T20:35:38.176Z,68.17
2023-05-21T20:38:09.727Z,69.19
2023-05-21T20:40:42.099Z,70.64
2023-05-21T20:43:13.755Z,71.27
2023-05-21T20:45:44.383Z,71.36
2023-05-21T20:48:14.934Z,72.31
2023-05-21T20:50:44.222Z,72.78
2023-05-21T20:53:15.653Z,73.48
2023-05-21T20:55:47.396Z,76.21
2023-05-21T20:58:17.208Z,76.62
2023-05-21T21:00:54.212Z,79.01
2023-05-21T21:03:27.772Z,80.60
2023-05-21T21:06:02.600Z,81.24
2023-05-21T21:08:35.444Z,80.68
2023-05-21T21:11:06.176Z,82.25
2023-05-21T21:13:35.625Z,82.03
2023-05-21T21:16:04.340Z,82.19
2023-05-21T21:18:33.233Z,81.46
2023-05-21T21:21:01.747Z,81.29
2023-05-21T21:23:30.480Z,81.49
2023-05-21T21:26:18.778Z,80.90
2023-05-21T21:28:47.159Z,81.23
2023-05-21T21:31:17.537Z,81.63
2023-05-21T21:33:51.355Z,82.14
2023-05-21T21:36:19.749Z,82.22
2023-05-21T21:38:47.956Z,81.77
2023-05-21T21:41:16.242Z,82.08
2023-05-21T21:43:46.116Z,81.96
2023-05-21T21:46:18.355Z,81.74
2023-05-21T21:48:47.434Z,81.39
2023-05-21T21:51:16.593Z,81.32
2023-05-21T21:53:45.296Z,81.60
2023-05-21T21:56:13.946Z,81.03
2023-05-21T21:58:42.218Z,80.92
2023-05-21T22:01:18.278Z,80.94
2023-05-21T22:03:47.131Z,81.34
2023-05-21T22:06:15.520Z,81.88
2023-05-21T22:08:44.404Z,82.16
2023-05-21T22:11:20.118Z,82.18
2023-05-21T22:13:48.863Z,82.48
2023-05-21T22:16:18.511Z,82.70
2023-05-21T22:18:50.347Z,82.93
2023-05-21T22:21:21.249Z,82.72
2023-05-21T22:23:49.623Z,82.77
2023-05-21T22:26:18.086Z,83.50
2023-05-21T22:28:46.524Z,84.52
2023-05-21T22:31:15.022Z,84.97
2023-05-21T22:33:44.781Z,86.65
2023-05-21T22:36:13.383Z,86.11
2023-05-21T22:38:41.733Z,86.87
2023-05-21T22:41:10.311Z,87.31
2023-05-21T22:43:38.807Z,88.46
2023-05-21T22:46:07.336Z,89.47
2023-05-21T22:48:37.108Z,90.34
2023-05-21T22:51:07.045Z,91.90
2023-05-21T22:53:35.543Z,92.92
2023-05-21T22:56:03.847Z,94.89
2023-05-21T22:58:32.451Z,96.73
2023-05-21T23:01:00.756Z,99.50
2023-05-21T23:03:29.213Z,100.00
2023-05-21T23:05:58.163Z,100.00
2023-05-21T23:08:27.794Z,100.00
2023-05-21T23:11:10.449Z,100.00
2023-05-21T23:13:38.771Z,100.00
2023-05-21T23:16:07.708Z,100.00
2023-05-21T23:18:36.240Z,100.00
2023-05-21T23:21:09.065Z,100.00
2023-05-21T23:23:38.796Z,100.00
2023-05-21T23:26:07.070Z,100.00
2023-05-21T23:28:36.501Z,100.00
2023-05-21T23:31:05.054Z,100.00
2023-05-21T23:33:33.461Z,100.00
2023-05-21T23:36:01.714Z,100.00
2023-05-21T23:38:51.662Z,100.00
2023-05-21T23:41:20.039Z,100.00
2023-05-21T23:43:48.281Z,100.00
2023-05-21T23:46:17.026Z,100.00
2023-05-21T23:48:45.378Z,100.00
2023-05-21T23:51:13.914Z,100.00
2023-05-21T23:53:42.320Z,100.00
2023-05-21T23:56:11.956Z,100.00
2023-05-21T23:58:40.441Z,100.00
